sensor_id;sensor_type;location;lat;lon;timestamp;temperature;humidity
34698;DHT22;61391;50.922;6.928;2023-03-13T00:00:29;11.10;99.90
34698;DHT22;61391;50.922;6.928;2023-03-13T00:02:54;11.10;99.90
34698;DHT22;61391;50.922;6.928;2023-03-13T00:05:20;11.20;99.90
34698;DHT22;61391;50.922;6.928;2023-03-13T00:07:46;11.20;99.90
34698;DHT22;61391;50.922;6.928;2023-03-13T00:10:11;11.20;99.90
34698;DHT22;61391;50.922;6.928;2023-03-13T00:12:37;11.20;99.90
34698;DHT22;61391;50.922;6.928;2023-03-13T00:15:02;11.30;99.90
34698;DHT22;61391;50.922;6.928;2023-03-13T00:17:28;11.30;99.90
34698;DHT22;61391;50.922;6.928;2023-03-13T00:19:54;11.20;99.90
34698;DHT22;61391;50.922;6.928;2023-03-13T00:22:20;11.20;99.90
34698;DHT22;61391;50.922;6.928;2023-03-13T00:24:46;11.20;99.90
34698;DHT22;61391;50.922;6.928;2023-03-13T00:27:11;11.20;99.90
34698;DHT22;61391;50.922;6.928;2023-03-13T00:29:37;11.20;99.90
34698;DHT22;61391;50.922;6.928;2023-03-13T00:32:02;11.30;99.90
34698;DHT22;61391;50.922;6.928;2023-03-13T00:34:29;11.30;99.90
34698;DHT22;61391;50.922;6.928;2023-03-13T00:36:54;11.30;99.90
34698;DHT22;61391;50.922;6.928;2023-03-13T00:42:42;11.50;99.90
34698;DHT22;61391;50.922;6.928;2023-03-13T00:45:09;11.50;99.90
34698;DHT22;61391;50.922;6.928;2023-03-13T00:47:34;11.60;99.90
34698;DHT22;61391;50.922;6.928;2023-03-13T00:50:00;11.60;99.90
34698;DHT22;61391;50.922;6.928;2023-03-13T00:52:26;11.50;99.90
34698;DHT22;61391;50.922;6.928;2023-03-13T00:54:52;11.60;99.90
34698;DHT22;61391;50.922;6.928;2023-03-13T00:57:18;11.50;99.90
34698;DHT22;61391;50.922;6.928;2023-03-13T00:59:43;11.50;99.90
34698;DHT22;61391;50.922;6.928;2023-03-13T01:02:09;11.50;99.90
34698;DHT22;61391;50.922;6.928;2023-03-13T01:04:34;11.50;99.90
34698;DHT22;61391;50.922;6.928;2023-03-13T01:07:00;11.50;99.90
34698;DHT22;61391;50.922;6.928;2023-03-13T01:09:25;11.60;99.90
34698;DHT22;61391;50.922;6.928;2023-03-13T01:11:51;11.60;99.90
34698;DHT22;61391;50.922;6.928;2023-03-13T01:14:18;11.70;99.90
34698;DHT22;61391;50.922;6.928;2023-03-13T01:16:44;11.70;99.90
34698;DHT22;61391;50.922;6.928;2023-03-13T01:19:12;11.70;99.90
34698;DHT22;61391;50.922;6.928;2023-03-13T01:21:38;11.70;99.90
34698;DHT22;61391;50.922;6.928;2023-03-13T01:24:04;11.60;99.90
34698;DHT22;61391;50.922;6.928;2023-03-13T01:26:30;11.80;99.90
34698;DHT22;61391;50.922;6.928;2023-03-13T01:28:56;11.90;99.90
34698;DHT22;61391;50.922;6.928;2023-03-13T01:31:30;11.90;99.90
34698;DHT22;61391;50.922;6.928;2023-03-13T01:33:58;11.80;99.90
34698;DHT22;61391;50.922;6.928;2023-03-13T01:36:24;12.00;99.90
34698;DHT22;61391;50.922;6.928;2023-03-13T01:38:52;12.00;99.90
34698;DHT22;61391;50.922;6.928;2023-03-13T01:41:19;12.10;99.90
34698;DHT22;61391;50.922;6.928;2023-03-13T01:43:46;12.00;99.90
34698;DHT22;61391;50.922;6.928;2023-03-13T01:49:34;12.00;99.90
34698;DHT22;61391;50.922;6.928;2023-03-13T01:52:09;12.10;99.90
34698;DHT22;61391;50.922;6.928;2023-03-13T02:00:08;12.10;99.90
34698;DHT22;61391;50.922;6.928;2023-03-13T02:02:33;12.10;99.90
34698;DHT22;61391;50.922;6.928;2023-03-13T02:05:01;12.10;99.90
34698;DHT22;61391;50.922;6.928;2023-03-13T02:07:38;12.10;99.90
34698;DHT22;61391;50.922;6.928;2023-03-13T02:10:05;12.10;99.90
34698;DHT22;61391;50.922;6.928;2023-03-13T02:12:34;12.10;99.90
34698;DHT22;61391;50.922;6.928;2023-03-13T02:15:09;12.10;99.90
34698;DHT22;61391;50.922;6.928;2023-03-13T02:17:37;12.10;99.90
34698;DHT22;61391;50.922;6.928;2023-03-13T02:20:04;12.00;99.90
34698;DHT22;61391;50.922;6.928;2023-03-13T02:28:11;12.00;99.90
34698;DHT22;61391;50.922;6.928;2023-03-13T02:33:59;11.90;99.90
34698;DHT22;61391;50.922;6.928;2023-03-13T02:36:27;11.80;99.90
34698;DHT22;61391;50.922;6.928;2023-03-13T02:39:01;11.80;99.90
34698;DHT22;61391;50.922;6.928;2023-03-13T02:41:28;11.60;99.90
34698;DHT22;61391;50.922;6.928;2023-03-13T02:43:55;11.60;99.90
34698;DHT22;61391;50.922;6.928;2023-03-13T02:46:21;11.50;99.90
34698;DHT22;61391;50.922;6.928;2023-03-13T02:48:49;11.30;99.90
34698;DHT22;61391;50.922;6.928;2023-03-13T02:51:29;11.20;99.90
34698;DHT22;61391;50.922;6.928;2023-03-13T02:53:59;11.20;99.90
34698;DHT22;61391;50.922;6.928;2023-03-13T02:56:27;11.30;99.90
34698;DHT22;61391;50.922;6.928;2023-03-13T02:58:55;11.20;99.90
34698;DHT22;61391;50.922;6.928;2023-03-13T03:01:21;11.40;99.90
34698;DHT22;61391;50.922;6.928;2023-03-13T03:03:47;11.30;99.90
34698;DHT22;61391;50.922;6.928;2023-03-13T03:06:13;11.30;99.90
34698;DHT22;61391;50.922;6.928;2023-03-13T03:08:38;11.30;99.90
34698;DHT22;61391;50.922;6.928;2023-03-13T03:14:27;11.30;99.90
34698;DHT22;61391;50.922;6.928;2023-03-13T03:16:53;11.30;99.90
34698;DHT22;61391;50.922;6.928;2023-03-13T03:19:18;11.30;99.90
34698;DHT22;61391;50.922;6.928;2023-03-13T03:21:44;11.30;99.90
34698;DHT22;61391;50.922;6.928;2023-03-13T03:24:10;11.40;99.90
34698;DHT22;61391;50.922;6.928;2023-03-13T03:26:35;11.40;99.90
34698;DHT22;61391;50.922;6.928;2023-03-13T03:29:01;11.50;99.90
34698;DHT22;61391;50.922;6.928;2023-03-13T03:31:26;11.40;99.90
34698;DHT22;61391;50.922;6.928;2023-03-13T03:33:52;11.40;99.90
34698;DHT22;61391;50.922;6.928;2023-03-13T03:36:20;11.50;99.90
34698;DHT22;61391;50.922;6.928;2023-03-13T03:38:46;11.60;99.90
34698;DHT22;61391;50.922;6.928;2023-03-13T03:41:12;11.60;99.90
34698;DHT22;61391;50.922;6.928;2023-03-13T03:43:38;11.70;99.90
34698;DHT22;61391;50.922;6.928;2023-03-13T03:46:04;11.70;99.90
34698;DHT22;61391;50.922;6.928;2023-03-13T03:48:31;11.70;99.90
34698;DHT22;61391;50.922;6.928;2023-03-13T03:50:56;11.70;99.90
34698;DHT22;61391;50.922;6.928;2023-03-13T03:53:22;11.80;99.90
34698;DHT22;61391;50.922;6.928;2023-03-13T03:55:48;11.80;99.90
34698;DHT22;61391;50.922;6.928;2023-03-13T03:58:13;11.80;99.90
34698;DHT22;61391;50.922;6.928;2023-03-13T04:04:01;11.80;99.90
34698;DHT22;61391;50.922;6.928;2023-03-13T04:06:27;11.80;99.90
34698;DHT22;61391;50.922;6.928;2023-03-13T04:08:52;11.90;99.90
34698;DHT22;61391;50.922;6.928;2023-03-13T04:11:18;11.90;99.90
34698;DHT22;61391;50.922;6.928;2023-03-13T04:13:44;11.90;99.90
34698;DHT22;61391;50.922;6.928;2023-03-13T04:16:10;12.00;99.90
34698;DHT22;61391;50.922;6.928;2023-03-13T04:18:35;12.10;99.90
34698;DHT22;61391;50.922;6.928;2023-03-13T04:21:02;12.10;99.90
34698;DHT22;61391;50.922;6.928;2023-03-13T04:23:28;12.20;99.90
34698;DHT22;61391;50.922;6.928;2023-03-13T04:25:53;12.10;99.90
34698;DHT22;61391;50.922;6.928;2023-03-13T04:28:19;12.10;99.90
34698;DHT22;61391;50.922;6.928;2023-03-13T04:30:45;12.10;99.90
34698;DHT22;61391;50.922;6.928;2023-03-13T04:36:32;12.10;99.90
34698;DHT22;61391;50.922;6.928;2023-03-13T04:38:58;12.00;99.90
34698;DHT22;61391;50.922;6.928;2023-03-13T04:41:23;12.10;99.90
34698;DHT22;61391;50.922;6.928;2023-03-13T04:47:11;12.10;99.90
34698;DHT22;61391;50.922;6.928;2023-03-13T04:49:36;12.10;99.90
34698;DHT22;61391;50.922;6.928;2023-03-13T04:52:02;12.10;99.90
34698;DHT22;61391;50.922;6.928;2023-03-13T04:54:28;12.10;99.90
34698;DHT22;61391;50.922;6.928;2023-03-13T04:56:53;12.20;99.90
34698;DHT22;61391;50.922;6.928;2023-03-13T04:59:20;12.10;99.90
34698;DHT22;61391;50.922;6.928;2023-03-13T05:05:08;12.10;99.90
34698;DHT22;61391;50.922;6.928;2023-03-13T05:07:35;12.10;99.90
34698;DHT22;61391;50.922;6.928;2023-03-13T05:10:01;12.20;99.90
34698;DHT22;61391;50.922;6.928;2023-03-13T05:12:27;12.30;99.90
34698;DHT22;61391;50.922;6.928;2023-03-13T05:14:58;12.50;99.90
34698;DHT22;61391;50.922;6.928;2023-03-13T05:17:25;12.50;99.90
34698;DHT22;61391;50.922;6.928;2023-03-13T05:19:51;12.60;99.90
34698;DHT22;61391;50.922;6.928;2023-03-13T05:22:16;12.50;99.90
34698;DHT22;61391;50.922;6.928;2023-03-13T05:25:13;12.30;99.90
34698;DHT22;61391;50.922;6.928;2023-03-13T05:27:38;12.40;99.90
34698;DHT22;61391;50.922;6.928;2023-03-13T05:30:05;12.40;99.90
34698;DHT22;61391;50.922;6.928;2023-03-13T05:32:32;12.60;99.90
34698;DHT22;61391;50.922;6.928;2023-03-13T05:38:34;12.50;99.90
34698;DHT22;61391;50.922;6.928;2023-03-13T05:41:00;12.40;99.90
34698;DHT22;61391;50.922;6.928;2023-03-13T05:43:26;12.60;99.90
34698;DHT22;61391;50.922;6.928;2023-03-13T05:49:16;12.60;99.90
34698;DHT22;61391;50.922;6.928;2023-03-13T05:51:42;12.60;99.90
34698;DHT22;61391;50.922;6.928;2023-03-13T05:54:09;12.60;99.90
34698;DHT22;61391;50.922;6.928;2023-03-13T05:56:35;12.70;99.90
34698;DHT22;61391;50.922;6.928;2023-03-13T05:59:04;12.70;99.90
34698;DHT22;61391;50.922;6.928;2023-03-13T06:01:29;12.60;99.90
34698;DHT22;61391;50.922;6.928;2023-03-13T06:03:56;12.60;99.90
34698;DHT22;61391;50.922;6.928;2023-03-13T06:06:23;12.70;99.90
34698;DHT22;61391;50.922;6.928;2023-03-13T06:08:51;12.80;99.90
34698;DHT22;61391;50.922;6.928;2023-03-13T06:11:17;13.00;99.90
34698;DHT22;61391;50.922;6.928;2023-03-13T06:17:06;12.80;99.90
34698;DHT22;61391;50.922;6.928;2023-03-13T06:19:33;12.90;99.90
34698;DHT22;61391;50.922;6.928;2023-03-13T06:22:00;12.90;99.90
34698;DHT22;61391;50.922;6.928;2023-03-13T06:27:48;12.90;99.90
34698;DHT22;61391;50.922;6.928;2023-03-13T06:30:14;13.10;99.90
34698;DHT22;61391;50.922;6.928;2023-03-13T06:36:02;13.10;99.90
34698;DHT22;61391;50.922;6.928;2023-03-13T06:38:29;13.20;99.90
34698;DHT22;61391;50.922;6.928;2023-03-13T06:40:57;13.20;99.90
34698;DHT22;61391;50.922;6.928;2023-03-13T06:46:45;13.40;99.90
34698;DHT22;61391;50.922;6.928;2023-03-13T06:49:12;13.50;99.90
34698;DHT22;61391;50.922;6.928;2023-03-13T06:51:39;13.50;99.90
34698;DHT22;61391;50.922;6.928;2023-03-13T06:54:06;13.50;99.90
34698;DHT22;61391;50.922;6.928;2023-03-13T06:59:55;13.70;99.90
34698;DHT22;61391;50.922;6.928;2023-03-13T07:02:21;13.80;99.90
34698;DHT22;61391;50.922;6.928;2023-03-13T07:04:49;13.80;99.90
34698;DHT22;61391;50.922;6.928;2023-03-13T07:07:16;13.90;99.90
34698;DHT22;61391;50.922;6.928;2023-03-13T07:09:43;13.90;99.90
34698;DHT22;61391;50.922;6.928;2023-03-13T07:12:21;13.90;99.90
34698;DHT22;61391;50.922;6.928;2023-03-13T07:14:46;13.90;99.90
34698;DHT22;61391;50.922;6.928;2023-03-13T07:17:12;13.90;99.90
34698;DHT22;61391;50.922;6.928;2023-03-13T07:19:38;13.90;99.90
34698;DHT22;61391;50.922;6.928;2023-03-13T07:22:05;13.90;99.90
34698;DHT22;61391;50.922;6.928;2023-03-13T07:24:30;13.80;99.90
34698;DHT22;61391;50.922;6.928;2023-03-13T07:26:57;13.90;99.90
34698;DHT22;61391;50.922;6.928;2023-03-13T07:29:26;14.00;99.90
34698;DHT22;61391;50.922;6.928;2023-03-13T07:31:52;14.00;99.90
34698;DHT22;61391;50.922;6.928;2023-03-13T07:34:18;14.20;99.90
34698;DHT22;61391;50.922;6.928;2023-03-13T07:36:45;14.10;99.90
34698;DHT22;61391;50.922;6.928;2023-03-13T07:42:32;14.20;99.90
34698;DHT22;61391;50.922;6.928;2023-03-13T07:48:21;14.30;99.90
34698;DHT22;61391;50.922;6.928;2023-03-13T07:50:47;14.20;99.90
34698;DHT22;61391;50.922;6.928;2023-03-13T07:56:36;14.50;99.90
34698;DHT22;61391;50.922;6.928;2023-03-13T07:59:03;14.50;99.90
34698;DHT22;61391;50.922;6.928;2023-03-13T08:01:29;14.70;99.90
34698;DHT22;61391;50.922;6.928;2023-03-13T08:07:19;14.80;99.90
34698;DHT22;61391;50.922;6.928;2023-03-13T08:09:44;14.80;99.90
34698;DHT22;61391;50.922;6.928;2023-03-13T08:15:32;14.70;99.90
34698;DHT22;61391;50.922;6.928;2023-03-13T08:17:58;14.80;99.90
34698;DHT22;61391;50.922;6.928;2023-03-13T08:20:23;14.80;99.90
34698;DHT22;61391;50.922;6.928;2023-03-13T08:22:50;14.70;99.90
34698;DHT22;61391;50.922;6.928;2023-03-13T08:25:16;14.60;99.90
34698;DHT22;61391;50.922;6.928;2023-03-13T08:27:43;14.60;99.90
34698;DHT22;61391;50.922;6.928;2023-03-13T08:30:10;14.70;99.90
34698;DHT22;61391;50.922;6.928;2023-03-13T08:32:36;14.70;99.90
34698;DHT22;61391;50.922;6.928;2023-03-13T08:38:24;14.70;99.90
34698;DHT22;61391;50.922;6.928;2023-03-13T08:40:54;14.70;99.90
34698;DHT22;61391;50.922;6.928;2023-03-13T08:43:23;14.70;99.90
34698;DHT22;61391;50.922;6.928;2023-03-13T08:45:54;14.60;99.90
34698;DHT22;61391;50.922;6.928;2023-03-13T08:48:20;14.70;99.90
34698;DHT22;61391;50.922;6.928;2023-03-13T08:50:47;14.50;99.90
34698;DHT22;61391;50.922;6.928;2023-03-13T08:56:49;14.40;99.90
34698;DHT22;61391;50.922;6.928;2023-03-13T08:59:15;14.50;99.90
34698;DHT22;61391;50.922;6.928;2023-03-13T09:05:03;14.50;99.90
34698;DHT22;61391;50.922;6.928;2023-03-13T09:07:32;14.60;99.90
34698;DHT22;61391;50.922;6.928;2023-03-13T09:13:21;14.70;99.90
34698;DHT22;61391;50.922;6.928;2023-03-13T09:15:54;14.70;99.90
34698;DHT22;61391;50.922;6.928;2023-03-13T09:21:41;14.70;99.90
34698;DHT22;61391;50.922;6.928;2023-03-13T09:24:09;14.80;99.90
34698;DHT22;61391;50.922;6.928;2023-03-13T09:26:34;14.70;99.90
34698;DHT22;61391;50.922;6.928;2023-03-13T09:29:00;14.90;99.90
34698;DHT22;61391;50.922;6.928;2023-03-13T09:31:30;14.90;99.90
34698;DHT22;61391;50.922;6.928;2023-03-13T09:37:18;14.90;99.90
34698;DHT22;61391;50.922;6.928;2023-03-13T09:46:00;14.90;99.90
34698;DHT22;61391;50.922;6.928;2023-03-13T09:51:53;14.90;99.90
34698;DHT22;61391;50.922;6.928;2023-03-13T09:54:51;15.10;99.90
34698;DHT22;61391;50.922;6.928;2023-03-13T09:57:35;15.00;99.90
34698;DHT22;61391;50.922;6.928;2023-03-13T10:03:46;15.00;99.90
34698;DHT22;61391;50.922;6.928;2023-03-13T10:06:20;15.10;99.90
34698;DHT22;61391;50.922;6.928;2023-03-13T10:12:19;15.40;99.90
34698;DHT22;61391;50.922;6.928;2023-03-13T10:15:15;15.60;99.90
34698;DHT22;61391;50.922;6.928;2023-03-13T10:21:15;15.70;99.90
34698;DHT22;61391;50.922;6.928;2023-03-13T10:29:33;15.90;99.90
34698;DHT22;61391;50.922;6.928;2023-03-13T10:32:02;16.10;99.90
34698;DHT22;61391;50.922;6.928;2023-03-13T10:38:03;17.60;99.90
34698;DHT22;61391;50.922;6.928;2023-03-13T10:43:53;18.00;99.90
34698;DHT22;61391;50.922;6.928;2023-03-13T10:49:54;17.50;99.90
34698;DHT22;61391;50.922;6.928;2023-03-13T10:52:53;17.60;99.90
34698;DHT22;61391;50.922;6.928;2023-03-13T10:55:57;17.80;99.90
34698;DHT22;61391;50.922;6.928;2023-03-13T10:59:03;18.20;99.90
34698;DHT22;61391;50.922;6.928;2023-03-13T11:01:51;18.00;99.90
34698;DHT22;61391;50.922;6.928;2023-03-13T11:07:43;18.10;99.90
34698;DHT22;61391;50.922;6.928;2023-03-13T11:10:25;18.20;99.90
34698;DHT22;61391;50.922;6.928;2023-03-13T11:13:03;18.10;99.90
34698;DHT22;61391;50.922;6.928;2023-03-13T11:15:50;17.90;99.90
34698;DHT22;61391;50.922;6.928;2023-03-13T11:18:51;17.50;99.90
34698;DHT22;61391;50.922;6.928;2023-03-13T11:21:36;17.50;99.90
34698;DHT22;61391;50.922;6.928;2023-03-13T11:24:23;17.80;99.90
34698;DHT22;61391;50.922;6.928;2023-03-13T11:27:54;18.10;99.90
34698;DHT22;61391;50.922;6.928;2023-03-13T11:30:52;18.10;99.90
34698;DHT22;61391;50.922;6.928;2023-03-13T11:45:57;18.30;99.90
34698;DHT22;61391;50.922;6.928;2023-03-13T11:52:28;18.10;99.90
34698;DHT22;61391;50.922;6.928;2023-03-13T12:01:33;18.10;99.90
34698;DHT22;61391;50.922;6.928;2023-03-13T12:07:30;18.00;99.90
34698;DHT22;61391;50.922;6.928;2023-03-13T12:10:03;17.60;99.90
34698;DHT22;61391;50.922;6.928;2023-03-13T12:15:45;17.50;99.90
34698;DHT22;61391;50.922;6.928;2023-03-13T12:18:34;17.60;99.90
34698;DHT22;61391;50.922;6.928;2023-03-13T12:27:20;18.00;99.90
34698;DHT22;61391;50.922;6.928;2023-03-13T12:30:04;18.00;99.90
34698;DHT22;61391;50.922;6.928;2023-03-13T12:35:21;18.10;99.90
34698;DHT22;61391;50.922;6.928;2023-03-13T12:40:37;18.00;99.90
34698;DHT22;61391;50.922;6.928;2023-03-13T12:43:13;18.00;99.90
34698;DHT22;61391;50.922;6.928;2023-03-13T13:00:54;18.00;99.90
34698;DHT22;61391;50.922;6.928;2023-03-13T13:03:39;17.80;99.90
34698;DHT22;61391;50.922;6.928;2023-03-13T13:06:12;17.80;99.90
34698;DHT22;61391;50.922;6.928;2023-03-13T13:09:06;17.90;99.90
34698;DHT22;61391;50.922;6.928;2023-03-13T13:17:15;17.90;99.90
34698;DHT22;61391;50.922;6.928;2023-03-13T13:19:46;17.90;99.90
34698;DHT22;61391;50.922;6.928;2023-03-13T13:27:50;17.70;99.90
34698;DHT22;61391;50.922;6.928;2023-03-13T13:33:42;17.50;99.90
34698;DHT22;61391;50.922;6.928;2023-03-13T13:39:49;17.10;99.90
34698;DHT22;61391;50.922;6.928;2023-03-13T13:54:53;17.00;99.90
34698;DHT22;61391;50.922;6.928;2023-03-13T13:57:30;16.90;99.90
34698;DHT22;61391;50.922;6.928;2023-03-13T14:03:27;17.20;99.90
34698;DHT22;61391;50.922;6.928;2023-03-13T14:05:58;17.20;99.90
34698;DHT22;61391;50.922;6.928;2023-03-13T14:08:36;17.40;99.90
34698;DHT22;61391;50.922;6.928;2023-03-13T14:14:27;17.40;99.90
34698;DHT22;61391;50.922;6.928;2023-03-13T14:16:55;17.50;99.90
34698;DHT22;61391;50.922;6.928;2023-03-13T14:22:47;17.70;99.90
34698;DHT22;61391;50.922;6.928;2023-03-13T14:25:46;17.70;99.90
34698;DHT22;61391;50.922;6.928;2023-03-13T14:28:24;17.60;99.90
34698;DHT22;61391;50.922;6.928;2023-03-13T14:30:53;17.40;99.90
34698;DHT22;61391;50.922;6.928;2023-03-13T14:33:21;17.30;99.90
34698;DHT22;61391;50.922;6.928;2023-03-13T14:35:47;17.50;99.90
34698;DHT22;61391;50.922;6.928;2023-03-13T14:38:22;17.60;99.90
34698;DHT22;61391;50.922;6.928;2023-03-13T14:44:23;17.30;99.90
34698;DHT22;61391;50.922;6.928;2023-03-13T14:50:13;17.30;99.90
34698;DHT22;61391;50.922;6.928;2023-03-13T14:56:14;17.10;99.90
34698;DHT22;61391;50.922;6.928;2023-03-13T14:58:45;17.10;99.90
34698;DHT22;61391;50.922;6.928;2023-03-13T15:01:27;17.00;99.90
34698;DHT22;61391;50.922;6.928;2023-03-13T15:03:55;17.00;99.90
34698;DHT22;61391;50.922;6.928;2023-03-13T15:06:24;17.10;99.90
34698;DHT22;61391;50.922;6.928;2023-03-13T15:09:30;17.10;99.90
34698;DHT22;61391;50.922;6.928;2023-03-13T15:11:59;17.20;99.90
34698;DHT22;61391;50.922;6.928;2023-03-13T15:17:47;17.20;99.90
34698;DHT22;61391;50.922;6.928;2023-03-13T15:20:13;17.20;99.90
34698;DHT22;61391;50.922;6.928;2023-03-13T15:22:43;17.20;99.90
34698;DHT22;61391;50.922;6.928;2023-03-13T15:25:22;17.20;99.90
34698;DHT22;61391;50.922;6.928;2023-03-13T15:27:49;17.20;99.90
34698;DHT22;61391;50.922;6.928;2023-03-13T15:30:17;17.10;99.90
34698;DHT22;61391;50.922;6.928;2023-03-13T15:32:45;17.10;99.90
34698;DHT22;61391;50.922;6.928;2023-03-13T15:41:12;17.20;99.90
34698;DHT22;61391;50.922;6.928;2023-03-13T15:43:37;17.10;99.90
34698;DHT22;61391;50.922;6.928;2023-03-13T15:49:28;17.10;99.90
34698;DHT22;61391;50.922;6.928;2023-03-13T15:55:18;16.90;99.90
34698;DHT22;61391;50.922;6.928;2023-03-13T15:57:48;17.00;99.90
34698;DHT22;61391;50.922;6.928;2023-03-13T16:03:37;17.10;99.90
34698;DHT22;61391;50.922;6.928;2023-03-13T16:09:26;17.10;99.90
34698;DHT22;61391;50.922;6.928;2023-03-13T16:11:52;17.00;99.90
34698;DHT22;61391;50.922;6.928;2023-03-13T16:17:41;16.90;99.90
34698;DHT22;61391;50.922;6.928;2023-03-13T16:20:18;16.90;99.90
34698;DHT22;61391;50.922;6.928;2023-03-13T16:26:24;16.90;99.90
34698;DHT22;61391;50.922;6.928;2023-03-13T16:32:15;16.80;99.90
34698;DHT22;61391;50.922;6.928;2023-03-13T16:34:41;16.90;99.90
34698;DHT22;61391;50.922;6.928;2023-03-13T16:40:31;16.60;99.90
34698;DHT22;61391;50.922;6.928;2023-03-13T16:42:57;16.50;99.90
34698;DHT22;61391;50.922;6.928;2023-03-13T16:48:47;16.40;99.90
34698;DHT22;61391;50.922;6.928;2023-03-13T16:54:37;16.10;99.90
34698;DHT22;61391;50.922;6.928;2023-03-13T17:00:30;16.00;99.90
34698;DHT22;61391;50.922;6.928;2023-03-13T17:02:58;16.10;99.90
34698;DHT22;61391;50.922;6.928;2023-03-13T17:05:26;16.00;99.90
34698;DHT22;61391;50.922;6.928;2023-03-13T17:07:51;16.00;99.90
34698;DHT22;61391;50.922;6.928;2023-03-13T17:13:39;16.10;99.90
34698;DHT22;61391;50.922;6.928;2023-03-13T17:16:11;16.00;99.90
34698;DHT22;61391;50.922;6.928;2023-03-13T17:18:38;15.90;99.90
34698;DHT22;61391;50.922;6.928;2023-03-13T17:21:04;15.80;99.90
34698;DHT22;61391;50.922;6.928;2023-03-13T17:23:30;15.80;99.90
34698;DHT22;61391;50.922;6.928;2023-03-13T17:25:57;15.70;99.90
34698;DHT22;61391;50.922;6.928;2023-03-13T17:28:23;15.70;99.90
34698;DHT22;61391;50.922;6.928;2023-03-13T17:30:48;15.50;99.90
34698;DHT22;61391;50.922;6.928;2023-03-13T17:36:50;15.60;99.90
34698;DHT22;61391;50.922;6.928;2023-03-13T17:42:59;15.60;99.90
34698;DHT22;61391;50.922;6.928;2023-03-13T17:49:03;15.50;99.90
34698;DHT22;61391;50.922;6.928;2023-03-13T17:51:31;15.40;99.90
34698;DHT22;61391;50.922;6.928;2023-03-13T17:53:59;15.50;99.90
34698;DHT22;61391;50.922;6.928;2023-03-13T17:56:33;15.60;99.90
34698;DHT22;61391;50.922;6.928;2023-03-13T17:59:02;15.60;99.90
34698;DHT22;61391;50.922;6.928;2023-03-13T18:01:30;15.40;99.90
34698;DHT22;61391;50.922;6.928;2023-03-13T18:03:56;15.30;99.90
34698;DHT22;61391;50.922;6.928;2023-03-13T18:06:26;15.20;99.90
34698;DHT22;61391;50.922;6.928;2023-03-13T18:08:54;15.20;99.90
34698;DHT22;61391;50.922;6.928;2023-03-13T18:14:42;15.20;99.90
34698;DHT22;61391;50.922;6.928;2023-03-13T18:20:31;15.10;99.90
34698;DHT22;61391;50.922;6.928;2023-03-13T18:28:58;15.00;99.90
34698;DHT22;61391;50.922;6.928;2023-03-13T18:31:34;14.90;99.90
34698;DHT22;61391;50.922;6.928;2023-03-13T18:34:01;14.90;99.90
34698;DHT22;61391;50.922;6.928;2023-03-13T18:36:28;14.90;99.90
34698;DHT22;61391;50.922;6.928;2023-03-13T18:38:54;14.90;99.90
34698;DHT22;61391;50.922;6.928;2023-03-13T18:41:20;14.90;99.90
34698;DHT22;61391;50.922;6.928;2023-03-13T18:43:46;14.90;99.90
34698;DHT22;61391;50.922;6.928;2023-03-13T18:48:39;14.90;99.90
34698;DHT22;61391;50.922;6.928;2023-03-13T18:51:05;15.00;99.90
34698;DHT22;61391;50.922;6.928;2023-03-13T18:53:31;14.90;99.90
34698;DHT22;61391;50.922;6.928;2023-03-13T18:56:03;15.00;99.90
34698;DHT22;61391;50.922;6.928;2023-03-13T18:58:30;15.10;99.90
34698;DHT22;61391;50.922;6.928;2023-03-13T19:00:55;15.00;99.90
34698;DHT22;61391;50.922;6.928;2023-03-13T19:03:28;14.80;99.90
34698;DHT22;61391;50.922;6.928;2023-03-13T19:09:18;14.80;99.90
34698;DHT22;61391;50.922;6.928;2023-03-13T19:14:59;14.80;99.90
34698;DHT22;61391;50.922;6.928;2023-03-13T19:17:25;14.90;99.90
34698;DHT22;61391;50.922;6.928;2023-03-13T19:23:16;14.60;99.90
34698;DHT22;61391;50.922;6.928;2023-03-13T19:25:41;14.50;99.90
34698;DHT22;61391;50.922;6.928;2023-03-13T19:28:08;14.40;99.90
34698;DHT22;61391;50.922;6.928;2023-03-13T19:30:34;14.30;99.90
34698;DHT22;61391;50.922;6.928;2023-03-13T19:32:59;14.30;99.90
34698;DHT22;61391;50.922;6.928;2023-03-13T19:36:00;14.20;99.90
34698;DHT22;61391;50.922;6.928;2023-03-13T19:38:26;14.20;99.90
34698;DHT22;61391;50.922;6.928;2023-03-13T19:40:52;14.10;99.90
34698;DHT22;61391;50.922;6.928;2023-03-13T19:46:40;14.10;99.90
34698;DHT22;61391;50.922;6.928;2023-03-13T19:49:13;14.00;99.90
34698;DHT22;61391;50.922;6.928;2023-03-13T19:51:42;14.00;99.90
34698;DHT22;61391;50.922;6.928;2023-03-13T19:54:09;14.00;99.90
34698;DHT22;61391;50.922;6.928;2023-03-13T19:59:59;13.80;99.90
34698;DHT22;61391;50.922;6.928;2023-03-13T20:02:24;13.80;99.90
34698;DHT22;61391;50.922;6.928;2023-03-13T20:11:31;13.60;99.90
34698;DHT22;61391;50.922;6.928;2023-03-13T20:13:57;13.40;99.90
34698;DHT22;61391;50.922;6.928;2023-03-13T20:16:24;13.30;99.90
34698;DHT22;61391;50.922;6.928;2023-03-13T20:18:52;13.40;99.90
34698;DHT22;61391;50.922;6.928;2023-03-13T20:21:19;13.30;99.90
34698;DHT22;61391;50.922;6.928;2023-03-13T20:23:47;13.30;99.90
34698;DHT22;61391;50.922;6.928;2023-03-13T20:29:35;13.40;99.90
34698;DHT22;61391;50.922;6.928;2023-03-13T20:32:01;13.30;99.90
34698;DHT22;61391;50.922;6.928;2023-03-13T20:37:50;13.20;99.90
34698;DHT22;61391;50.922;6.928;2023-03-13T20:40:18;13.20;99.90
34698;DHT22;61391;50.922;6.928;2023-03-13T20:42:44;13.10;99.90
34698;DHT22;61391;50.922;6.928;2023-03-13T20:45:10;13.00;99.90
34698;DHT22;61391;50.922;6.928;2023-03-13T20:47:36;12.90;99.90
34698;DHT22;61391;50.922;6.928;2023-03-13T20:50:05;12.90;99.90
34698;DHT22;61391;50.922;6.928;2023-03-13T20:52:32;13.00;99.90
34698;DHT22;61391;50.922;6.928;2023-03-13T20:54:57;12.90;99.90
34698;DHT22;61391;50.922;6.928;2023-03-13T20:57:23;12.90;99.90
34698;DHT22;61391;50.922;6.928;2023-03-13T20:59:50;12.80;99.90
34698;DHT22;61391;50.922;6.928;2023-03-13T21:02:15;12.90;99.90
34698;DHT22;61391;50.922;6.928;2023-03-13T21:08:08;12.90;99.90
34698;DHT22;61391;50.922;6.928;2023-03-13T21:10:38;12.80;99.90
34698;DHT22;61391;50.922;6.928;2023-03-13T21:13:06;12.70;99.90
34698;DHT22;61391;50.922;6.928;2023-03-13T21:15:32;12.70;99.90
34698;DHT22;61391;50.922;6.928;2023-03-13T21:17:58;12.60;99.90
34698;DHT22;61391;50.922;6.928;2023-03-13T21:20:26;12.80;99.90
34698;DHT22;61391;50.922;6.928;2023-03-13T21:22:51;12.90;99.90
34698;DHT22;61391;50.922;6.928;2023-03-13T21:25:17;12.80;99.90
34698;DHT22;61391;50.922;6.928;2023-03-13T21:27:43;12.70;99.90
34698;DHT22;61391;50.922;6.928;2023-03-13T21:30:19;12.80;99.90
34698;DHT22;61391;50.922;6.928;2023-03-13T21:32:45;12.60;99.90
34698;DHT22;61391;50.922;6.928;2023-03-13T21:35:12;12.60;99.90
34698;DHT22;61391;50.922;6.928;2023-03-13T21:37:38;12.80;99.90